createdAt,value
2018-11-13T00:00:23.115Z,9.30
2018-11-13T00:02:52.250Z,9.30
2018-11-13T00:05:21.102Z,9.30
2018-11-13T00:07:55.519Z,9.30
2018-11-13T00:10:24.138Z,9.30
2018-11-13T00:12:52.297Z,9.30
2018-11-13T00:15:21.507Z,9.20
2018-11-13T00:17:49.625Z,9.20
2018-11-13T00:20:20.123Z,9.30
2018-11-13T00:22:48.352Z,9.20
2018-11-13T00:25:17.693Z,9.30
2018-11-13T00:27:46.311Z,9.20
2018-11-13T00:30:16.934Z,9.20
2018-11-13T00:32:45.277Z,9.20
2018-11-13T00:35:14.897Z,9.10
2018-11-13T00:37:43.607Z,9.10
2018-11-13T00:40:12.237Z,9.10
2018-11-13T00:42:41.149Z,9.10
2018-11-13T00:45:10.893Z,9.10
2018-11-13T00:47:39.350Z,9.10
2018-11-13T00:50:11.464Z,9.20
2018-11-13T00:52:40.605Z,9.20
2018-11-13T00:55:09.329Z,9.10
2018-11-13T00:57:38.477Z,9.20
2018-11-13T01:00:10.393Z,9.10
2018-11-13T01:02:39.436Z,9.20
2018-11-13T01:05:09.714Z,9.20
2018-11-13T01:07:38.129Z,9.10
2018-11-13T01:10:07.550Z,9.10
2018-11-13T01:12:36.198Z,9.10
2018-11-13T01:15:04.686Z,9.10
2018-11-13T01:17:33.881Z,9.10
2018-11-13T01:20:03.509Z,9.10
2018-11-13T01:22:33.134Z,9.10
2018-11-13T01:25:02.013Z,9.10
2018-11-13T01:27:30.826Z,9.00
2018-11-13T01:30:00.146Z,9.10
2018-11-13T01:32:29.837Z,9.10
2018-11-13T01:34:58.049Z,9.10
2018-11-13T01:37:26.775Z,9.10
2018-11-13T01:39:55.297Z,9.10
2018-11-13T01:42:24.165Z,9.10
2018-11-13T01:44:52.457Z,9.10
2018-11-13T01:47:21.785Z,9.00
2018-11-13T01:49:50.105Z,9.00
2018-11-13T01:52:19.141Z,8.90
2018-11-13T01:54:48.232Z,9.00
2018-11-13T01:57:16.574Z,9.00
2018-11-13T01:59:45.321Z,9.00
2018-11-13T02:02:14.338Z,9.00
2018-11-13T02:04:42.550Z,8.90
2018-11-13T02:07:10.631Z,8.80
2018-11-13T02:09:38.771Z,8.80
2018-11-13T02:12:07.485Z,8.80
2018-11-13T02:14:36.325Z,8.80
2018-11-13T02:17:05.437Z,8.80
2018-11-13T02:19:33.681Z,8.70
2018-11-13T02:22:02.017Z,8.70
2018-11-13T02:24:30.164Z,8.70
2018-11-13T02:27:00.066Z,8.70
2018-11-13T02:29:28.436Z,8.70
2018-11-13T02:31:56.649Z,8.70
2018-11-13T02:34:25.526Z,8.70
2018-11-13T02:36:53.890Z,8.70
2018-11-13T02:39:22.085Z,8.70
2018-11-13T02:41:50.270Z,8.60
2018-11-13T02:44:18.637Z,8.60
2018-11-13T02:46:47.441Z,8.60
2018-11-13T02:49:15.619Z,8.60
2018-11-13T02:51:43.794Z,8.60
2018-11-13T02:54:12.423Z,8.60
2018-11-13T02:56:40.706Z,8.60
2018-11-13T02:59:09.154Z,8.60
2018-11-13T03:01:38.452Z,8.60
2018-11-13T03:04:07.098Z,8.60
2018-11-13T03:06:35.541Z,8.60
2018-11-13T03:09:06.708Z,8.60
2018-11-13T03:11:35.407Z,8.60
2018-11-13T03:14:03.505Z,8.60
2018-11-13T03:16:32.743Z,8.60
2018-11-13T03:19:02.726Z,8.60
2018-11-13T03:21:30.869Z,8.60
2018-11-13T03:23:59.335Z,8.50
2018-11-13T03:26:27.430Z,8.60
2018-11-13T03:28:55.864Z,8.60
2018-11-13T03:31:24.267Z,8.60
2018-11-13T03:33:53.571Z,8.60
2018-11-13T03:36:21.774Z,8.50
2018-11-13T03:38:50.369Z,8.50
2018-11-13T03:41:18.639Z,8.50
2018-11-13T03:43:48.689Z,8.50
2018-11-13T03:46:16.966Z,8.50
2018-11-13T03:51:26.581Z,8.50
2018-11-13T03:53:56.931Z,8.50
2018-11-13T03:56:25.966Z,8.40
2018-11-13T03:58:54.705Z,8.40
2018-11-13T04:01:24.478Z,8.40
2018-11-13T04:03:53.761Z,8.40
2018-11-13T04:07:25.513Z,8.40
2018-11-13T04:09:53.646Z,8.40
2018-11-13T04:12:21.838Z,8.30
2018-11-13T04:14:50.161Z,8.30
2018-11-13T04:17:19.901Z,8.30
2018-11-13T04:19:48.753Z,8.30
2018-11-13T04:22:16.990Z,8.30
2018-11-13T04:24:45.787Z,8.30
2018-11-13T04:27:14.603Z,8.30
2018-11-13T04:29:43.889Z,8.30
2018-11-13T04:32:12.463Z,8.30
2018-11-13T04:34:41.187Z,8.30
2018-11-13T04:37:09.958Z,8.40
2018-11-13T04:39:39.265Z,8.30
2018-11-13T04:42:08.669Z,8.30
2018-11-13T04:44:37.522Z,8.40
2018-11-13T04:47:05.994Z,8.40
2018-11-13T04:49:34.598Z,8.40
2018-11-13T04:52:03.569Z,8.30
2018-11-13T04:54:32.574Z,8.30
2018-11-13T04:57:02.454Z,8.30
2018-11-13T04:59:31.734Z,8.30
2018-11-13T05:02:00.157Z,8.30
2018-11-13T05:04:28.575Z,8.30
2018-11-13T05:06:58.302Z,8.30
2018-11-13T05:09:28.577Z,8.20
2018-11-13T05:11:57.748Z,8.30
2018-11-13T05:14:25.982Z,8.30
2018-11-13T05:16:54.178Z,8.30
2018-11-13T05:19:23.450Z,8.20
2018-11-13T05:21:51.601Z,8.30
2018-11-13T05:24:19.921Z,8.30
2018-11-13T05:26:48.627Z,8.20
2018-11-13T05:29:16.986Z,8.20
2018-11-13T05:31:45.699Z,8.30
2018-11-13T05:34:14.402Z,8.30
2018-11-13T05:36:43.071Z,8.30
2018-11-13T05:39:12.597Z,8.30
2018-11-13T05:41:41.706Z,8.30
2018-11-13T05:44:10.531Z,8.30
2018-11-13T05:46:39.809Z,8.40
2018-11-13T05:49:08.885Z,8.40
2018-11-13T05:51:37.518Z,8.40
2018-11-13T05:54:06.210Z,8.30
2018-11-13T05:56:34.472Z,8.30
2018-11-13T05:59:02.646Z,8.30
2018-11-13T06:01:31.373Z,8.40
2018-11-13T06:03:59.569Z,8.40
2018-11-13T06:06:27.713Z,8.40
2018-11-13T06:08:55.802Z,8.40
2018-11-13T06:11:24.134Z,8.40
2018-11-13T06:13:52.270Z,8.50
2018-11-13T06:16:20.373Z,8.50
2018-11-13T06:18:48.459Z,8.50
2018-11-13T06:21:17.823Z,8.50
2018-11-13T06:23:47.226Z,8.50
2018-11-13T06:26:15.662Z,8.50
2018-11-13T06:28:45.187Z,8.40
2018-11-13T06:31:14.126Z,8.40
2018-11-13T06:33:43.022Z,8.40
2018-11-13T06:36:11.601Z,8.40
2018-11-13T06:38:40.621Z,8.40
2018-11-13T06:41:09.290Z,8.40
2018-11-13T06:43:37.550Z,8.40
2018-11-13T06:46:06.412Z,8.30
2018-11-13T06:48:34.626Z,8.40
2018-11-13T06:51:03.149Z,8.40
2018-11-13T06:53:45.570Z,8.40
2018-11-13T06:56:14.475Z,8.40
2018-11-13T06:58:42.633Z,8.50
2018-11-13T07:01:11.362Z,8.50
2018-11-13T07:03:39.500Z,8.50
2018-11-13T07:06:07.685Z,8.50
2018-11-13T07:08:36.545Z,8.60
2018-11-13T07:11:05.140Z,8.60
2018-11-13T07:13:36.277Z,8.70
2018-11-13T07:16:05.489Z,8.60
2018-11-13T07:18:34.235Z,8.70
2018-11-13T07:21:03.487Z,8.70
2018-11-13T07:23:31.690Z,8.70
2018-11-13T07:26:00.435Z,8.70
2018-11-13T07:28:28.594Z,8.80
2018-11-13T07:30:57.006Z,8.80
2018-11-13T07:33:25.973Z,8.80
2018-11-13T07:35:54.273Z,8.80
2018-11-13T07:38:22.417Z,8.90
2018-11-13T07:40:50.796Z,8.90
2018-11-13T07:43:19.069Z,9.00
2018-11-13T07:45:47.421Z,9.00
2018-11-13T07:48:15.693Z,9.10
2018-11-13T07:50:44.690Z,9.10
2018-11-13T07:53:13.463Z,9.20
2018-11-13T07:55:41.695Z,9.20
2018-11-13T07:58:11.110Z,9.20
2018-11-13T08:00:39.417Z,9.30
2018-11-13T08:03:19.500Z,9.30
2018-11-13T08:05:48.266Z,9.30
2018-11-13T08:08:16.537Z,9.30
2018-11-13T08:10:44.691Z,9.30
2018-11-13T08:13:14.356Z,9.40
2018-11-13T08:15:43.120Z,9.50
2018-11-13T08:18:12.147Z,9.50
2018-11-13T08:20:42.087Z,9.40
2018-11-13T08:23:11.150Z,9.40
2018-11-13T08:25:40.103Z,9.30
2018-11-13T08:28:08.858Z,9.30
2018-11-13T08:30:37.082Z,9.30
2018-11-13T08:33:06.607Z,9.30
2018-11-13T08:35:35.440Z,9.50
2018-11-13T08:38:04.141Z,9.60
2018-11-13T08:40:32.790Z,9.70
2018-11-13T08:43:01.390Z,9.80
2018-11-13T08:45:29.522Z,9.90
2018-11-13T08:47:57.791Z,10.00
2018-11-13T08:50:25.920Z,10.20
2018-11-13T08:52:54.193Z,10.30
2018-11-13T08:55:24.226Z,10.40
2018-11-13T08:57:54.197Z,10.50
2018-11-13T09:00:22.310Z,10.50
2018-11-13T09:02:51.364Z,10.50
2018-11-13T09:05:21.483Z,10.60
2018-11-13T09:07:49.755Z,10.70
2018-11-13T09:10:19.378Z,10.50
2018-11-13T09:12:48.369Z,10.60
2018-11-13T09:15:18.679Z,10.60
2018-11-13T09:17:46.930Z,10.40
2018-11-13T09:20:17.166Z,10.40
2018-11-13T09:22:46.523Z,11.00
2018-11-13T09:25:17.761Z,12.80
2018-11-13T09:27:47.033Z,13.60
2018-11-13T09:30:16.898Z,14.40
2018-11-13T09:32:46.352Z,13.60
2018-11-13T09:35:15.857Z,13.10
2018-11-13T09:37:44.646Z,12.10
2018-11-13T09:40:16.561Z,11.50
2018-11-13T09:42:45.777Z,11.20
2018-11-13T09:45:14.944Z,11.10
2018-11-13T09:47:44.109Z,11.40
2018-11-13T09:50:14.341Z,11.30
2018-11-13T09:52:43.610Z,11.20
2018-11-13T09:55:13.298Z,10.60
2018-11-13T09:57:41.673Z,11.20
2018-11-13T10:00:12.518Z,11.20
2018-11-13T10:02:42.849Z,11.20
2018-11-13T10:05:11.100Z,11.10
2018-11-13T10:07:41.095Z,11.00
2018-11-13T10:10:10.892Z,11.00
2018-11-13T10:12:39.841Z,10.90
2018-11-13T10:15:10.247Z,10.90
2018-11-13T10:17:38.806Z,10.80
2018-11-13T10:20:09.226Z,10.80
2018-11-13T10:22:37.381Z,10.90
2018-11-13T10:25:06.526Z,10.80
2018-11-13T10:27:34.858Z,10.80
2018-11-13T10:30:03.538Z,10.90
2018-11-13T10:32:31.650Z,10.80
2018-11-13T10:35:00.051Z,10.80
2018-11-13T10:37:28.140Z,10.80
2018-11-13T10:39:57.158Z,10.80
2018-11-13T10:42:25.736Z,10.80
2018-11-13T10:44:59.222Z,10.80
2018-11-13T10:47:27.338Z,10.70
2018-11-13T10:49:56.626Z,10.60
2018-11-13T10:52:24.785Z,10.60
2018-11-13T10:54:53.454Z,11.40
2018-11-13T10:57:22.592Z,10.70
2018-11-13T10:59:51.152Z,10.80
2018-11-13T11:02:25.589Z,10.70
2018-11-13T11:04:54.037Z,10.80
2018-11-13T11:07:22.971Z,10.90
2018-11-13T11:09:51.173Z,10.90
2018-11-13T11:12:20.213Z,10.90
2018-11-13T11:14:48.541Z,10.90
2018-11-13T11:17:16.998Z,10.80
2018-11-13T11:19:45.618Z,11.00
2018-11-13T11:22:18.390Z,11.20
2018-11-13T11:24:47.566Z,11.30
2018-11-13T11:27:16.974Z,11.40
2018-11-13T11:29:45.850Z,11.40
2018-11-13T11:32:14.031Z,11.30
2018-11-13T11:34:44.915Z,11.30
2018-11-13T11:37:14.075Z,11.30
2018-11-13T11:39:42.218Z,11.30
2018-11-13T11:42:10.911Z,11.40
2018-11-13T11:44:39.078Z,11.50
2018-11-13T11:47:08.482Z,11.40
2018-11-13T11:49:39.774Z,11.30
2018-11-13T11:52:08.687Z,11.10
2018-11-13T11:54:36.814Z,11.00
2018-11-13T11:57:05.689Z,11.00
2018-11-13T11:59:34.602Z,11.00
2018-11-13T12:02:03.063Z,10.90
2018-11-13T12:04:31.220Z,10.90
2018-11-13T12:06:59.789Z,10.90
2018-11-13T12:09:27.902Z,10.80
2018-11-13T12:11:57.870Z,10.70
2018-11-13T12:14:26.191Z,10.60
2018-11-13T12:16:54.970Z,10.50
2018-11-13T12:19:23.178Z,10.50
2018-11-13T12:21:52.072Z,10.40
2018-11-13T12:24:20.977Z,10.30
2018-11-13T12:26:50.963Z,10.20
2018-11-13T12:29:19.111Z,10.20
2018-11-13T12:31:47.426Z,10.20
2018-11-13T12:34:16.339Z,10.20
2018-11-13T12:36:44.903Z,10.10
2018-11-13T12:39:14.405Z,10.00
2018-11-13T12:41:43.881Z,10.00
2018-11-13T12:44:15.571Z,9.90
2018-11-13T12:46:44.913Z,9.80
2018-11-13T12:49:15.044Z,9.80
2018-11-13T12:51:47.766Z,9.70
2018-11-13T12:54:17.370Z,9.70
2018-11-13T12:56:46.590Z,9.70
2018-11-13T12:59:15.026Z,9.70
2018-11-13T13:01:44.242Z,9.70
2018-11-13T13:04:12.838Z,9.80
2018-11-13T13:06:40.946Z,9.80
2018-11-13T13:09:10.358Z,9.80
2018-11-13T13:11:39.896Z,9.70
2018-11-13T13:14:15.350Z,9.70
2018-11-13T13:16:44.021Z,9.60
2018-11-13T13:19:13.198Z,9.60
2018-11-13T13:21:42.227Z,9.60
2018-11-13T13:24:10.329Z,9.50
2018-11-13T13:26:38.626Z,9.50
2018-11-13T13:29:07.383Z,9.50
2018-11-13T13:31:35.589Z,9.50
2018-11-13T13:34:03.690Z,9.50
2018-11-13T13:36:31.822Z,9.50
2018-11-13T13:39:00.934Z,9.50
2018-11-13T13:41:29.009Z,9.40
2018-11-13T13:43:57.315Z,9.50
2018-11-13T13:46:26.934Z,9.50
2018-11-13T13:48:55.053Z,9.50
2018-11-13T13:51:23.529Z,9.50
2018-11-13T13:53:52.182Z,9.50
2018-11-13T13:56:21.232Z,9.60
2018-11-13T13:58:49.358Z,9.70
2018-11-13T14:01:18.035Z,9.70
2018-11-13T14:03:47.972Z,9.70
2018-11-13T14:06:15.591Z,9.90
2018-11-13T14:08:43.941Z,10.00
2018-11-13T14:11:12.922Z,10.10
2018-11-13T14:13:42.442Z,10.00
2018-11-13T14:16:10.807Z,10.10
2018-11-13T14:18:40.074Z,10.00
2018-11-13T14:21:08.948Z,10.00
2018-11-13T14:23:37.359Z,10.00
2018-11-13T14:26:05.578Z,9.90
2018-11-13T14:28:35.791Z,9.90
2018-11-13T14:31:05.110Z,9.90
2018-11-13T14:33:33.302Z,9.80
2018-11-13T14:36:01.498Z,9.80
2018-11-13T14:38:29.647Z,9.80
2018-11-13T14:40:58.026Z,9.80
2018-11-13T14:43:26.738Z,9.80
2018-11-13T14:45:55.450Z,9.80
2018-11-13T14:48:24.113Z,9.40
2018-11-13T14:50:52.194Z,9.70
2018-11-13T14:53:22.145Z,9.60
2018-11-13T14:55:50.666Z,9.50
2018-11-13T14:58:19.386Z,9.50
2018-11-13T15:00:47.522Z,9.40
2018-11-13T15:03:17.586Z,9.40
2018-11-13T15:05:46.563Z,9.30
2018-11-13T15:08:14.825Z,9.30
2018-11-13T15:10:58.271Z,9.30
2018-11-13T15:13:27.558Z,9.30
2018-11-13T15:15:57.432Z,9.30
2018-11-13T15:18:25.582Z,9.30
2018-11-13T15:20:54.035Z,9.30
2018-11-13T15:23:23.002Z,9.20
2018-11-13T15:25:52.057Z,9.10
2018-11-13T15:28:20.334Z,9.10
2018-11-13T15:30:50.827Z,9.10
2018-11-13T15:33:21.291Z,9.00
2018-11-13T15:35:49.556Z,9.00
2018-11-13T15:38:18.605Z,8.90
2018-11-13T15:40:48.741Z,8.90
2018-11-13T15:43:17.554Z,8.80
2018-11-13T15:45:45.899Z,8.80
2018-11-13T15:48:16.441Z,8.70
2018-11-13T15:50:44.633Z,8.70
2018-11-13T15:53:13.537Z,8.70
2018-11-13T15:55:42.369Z,8.80
2018-11-13T15:58:13.420Z,8.90
2018-11-13T16:00:42.643Z,8.90
2018-11-13T16:03:19.980Z,9.00
2018-11-13T16:05:49.974Z,9.00
2018-11-13T16:08:18.617Z,9.00
2018-11-13T16:10:47.101Z,9.10
2018-11-13T16:13:17.192Z,9.10
2018-11-13T16:15:46.613Z,9.10
2018-11-13T16:18:16.226Z,9.10
2018-11-13T16:20:44.577Z,9.00
2018-11-13T16:23:13.533Z,9.00
2018-11-13T16:25:42.445Z,9.00
2018-11-13T16:28:10.628Z,9.00
2018-11-13T16:30:39.481Z,9.10
2018-11-13T16:33:08.125Z,9.10
2018-11-13T16:35:37.428Z,9.20
2018-11-13T16:38:07.243Z,9.80
2018-11-13T16:40:35.250Z,9.10
2018-11-13T16:43:04.584Z,9.20
2018-11-13T16:45:34.603Z,9.10
2018-11-13T16:48:04.616Z,9.10
2018-11-13T16:50:41.578Z,9.20
2018-11-13T16:53:10.019Z,9.20
2018-11-13T16:55:44.541Z,9.20
2018-11-13T16:58:14.141Z,9.20
2018-11-13T17:00:42.461Z,9.20
2018-11-13T17:03:11.079Z,9.30
2018-11-13T17:05:40.004Z,9.20
2018-11-13T17:08:08.042Z,9.20
2018-11-13T17:10:39.044Z,9.20
2018-11-13T17:13:07.150Z,9.10
2018-11-13T17:15:36.373Z,9.20
2018-11-13T17:18:05.754Z,9.10
2018-11-13T17:20:34.805Z,9.00
2018-11-13T17:23:03.678Z,9.00
2018-11-13T17:25:34.198Z,8.90
2018-11-13T17:28:03.606Z,8.80
2018-11-13T17:30:34.211Z,8.70
2018-11-13T17:33:03.928Z,8.80
2018-11-13T17:35:33.034Z,8.80
2018-11-13T17:38:02.132Z,8.80
2018-11-13T17:40:32.246Z,8.90
2018-11-13T17:43:02.449Z,8.90
2018-11-13T17:45:33.945Z,8.90
2018-11-13T17:48:03.127Z,9.00
2018-11-13T17:50:33.222Z,9.00
2018-11-13T17:53:03.167Z,9.10
2018-11-13T17:55:31.849Z,9.10
2018-11-13T17:58:03.231Z,9.10
2018-11-13T18:00:37.042Z,9.00
2018-11-13T18:03:07.549Z,9.00
2018-11-13T18:05:36.033Z,9.10
2018-11-13T18:08:05.038Z,9.10
2018-11-13T18:10:34.054Z,9.10
2018-11-13T18:13:03.037Z,9.10
2018-11-13T18:15:31.781Z,9.00
2018-11-13T18:18:00.328Z,9.00
2018-11-13T18:20:30.700Z,9.20
2018-11-13T18:23:00.301Z,9.10
2018-11-13T18:25:28.722Z,9.20
2018-11-13T18:27:58.356Z,9.20
2018-11-13T18:30:28.674Z,9.20
2018-11-13T18:32:57.794Z,9.20
2018-11-13T18:35:27.432Z,9.20
2018-11-13T18:37:56.402Z,9.20
2018-11-13T18:40:25.762Z,9.20
2018-11-13T18:42:55.769Z,9.20
2018-11-13T18:45:26.851Z,9.20
2018-11-13T18:47:55.425Z,9.10
2018-11-13T18:50:25.812Z,9.10
2018-11-13T18:52:54.195Z,9.20
2018-11-13T18:55:22.258Z,9.20
2018-11-13T18:57:51.829Z,9.20
2018-11-13T19:00:22.264Z,9.20
2018-11-13T19:02:50.425Z,9.20
2018-11-13T19:05:19.942Z,9.20
2018-11-13T19:07:48.453Z,9.10
2018-11-13T19:10:20.631Z,9.20
2018-11-13T19:12:48.983Z,9.20
2018-11-13T19:15:16.977Z,9.20
2018-11-13T19:17:46.826Z,9.20
2018-11-13T19:20:17.048Z,9.20
2018-11-13T19:22:45.594Z,9.20
2018-11-13T19:25:16.802Z,9.20
2018-11-13T19:27:46.035Z,9.20
2018-11-13T19:30:15.208Z,9.20
2018-11-13T19:32:43.985Z,9.20
2018-11-13T19:35:12.811Z,9.10
2018-11-13T19:37:41.558Z,9.20
2018-11-13T19:40:14.265Z,9.20
2018-11-13T19:42:42.861Z,9.10
2018-11-13T19:45:11.329Z,8.90
2018-11-13T19:47:39.683Z,8.80
2018-11-13T19:50:09.817Z,8.80
2018-11-13T19:52:38.209Z,8.80
2018-11-13T19:55:07.208Z,8.80
2018-11-13T19:57:35.373Z,8.80
2018-11-13T20:00:03.604Z,8.80
2018-11-13T20:02:32.110Z,8.70
2018-11-13T20:05:00.364Z,8.70
2018-11-13T20:07:28.457Z,8.70
2018-11-13T20:09:56.919Z,8.60
2018-11-13T20:12:25.248Z,8.60
2018-11-13T20:14:54.354Z,8.50
2018-11-13T20:17:23.649Z,8.60
2018-11-13T20:19:51.798Z,8.50
2018-11-13T20:22:20.291Z,8.60
2018-11-13T20:24:48.938Z,8.50
2018-11-13T20:27:17.921Z,8.60
2018-11-13T20:29:46.091Z,8.60
2018-11-13T20:32:15.362Z,8.60
2018-11-13T20:34:43.700Z,8.50
2018-11-13T20:37:12.617Z,8.50
2018-11-13T20:39:41.022Z,8.50
2018-11-13T20:42:09.550Z,8.50
2018-11-13T20:44:37.763Z,8.40
2018-11-13T20:47:06.549Z,8.50
2018-11-13T20:49:34.880Z,8.60
2018-11-13T20:52:03.726Z,8.70
2018-11-13T20:54:31.802Z,8.70
2018-11-13T20:56:59.987Z,8.80
2018-11-13T20:59:28.108Z,8.80
2018-11-13T21:01:57.606Z,8.90
2018-11-13T21:04:25.683Z,8.90
2018-11-13T21:06:54.881Z,8.90
2018-11-13T21:09:23.748Z,8.90
2018-11-13T21:11:52.499Z,8.90
2018-11-13T21:14:20.590Z,8.90
2018-11-13T21:16:49.716Z,8.90
2018-11-13T21:19:18.160Z,8.90
2018-11-13T21:21:46.410Z,9.00
2018-11-13T21:24:14.570Z,8.90
2018-11-13T21:26:43.315Z,9.00
2018-11-13T21:29:11.877Z,8.90
2018-11-13T21:31:40.719Z,8.90
2018-11-13T21:34:10.019Z,8.90
2018-11-13T21:36:38.274Z,8.80
2018-11-13T21:39:09.033Z,8.80
2018-11-13T21:41:37.376Z,8.70
2018-11-13T21:44:06.437Z,8.60
2018-11-13T21:46:34.558Z,8.50
2018-11-13T21:49:03.302Z,8.50
2018-11-13T21:51:33.178Z,8.40
2018-11-13T21:54:01.897Z,8.30
2018-11-13T21:56:29.970Z,8.30
2018-11-13T21:58:58.217Z,8.30
2018-11-13T22:01:26.300Z,8.20
2018-11-13T22:03:55.486Z,8.20
2018-11-13T22:06:23.418Z,8.20
2018-11-13T22:08:53.005Z,8.30
2018-11-13T22:11:22.751Z,8.30
2018-11-13T22:13:51.321Z,8.30
2018-11-13T22:16:20.017Z,8.30
2018-11-13T22:18:48.910Z,8.30
2018-11-13T22:21:17.335Z,8.30
2018-11-13T22:23:46.534Z,8.30
2018-11-13T22:26:14.933Z,8.30
2018-11-13T22:28:43.180Z,8.30
2018-11-13T22:31:11.219Z,8.30
2018-11-13T22:33:40.660Z,8.40
2018-11-13T22:36:08.737Z,8.40
2018-11-13T22:38:37.413Z,8.50
2018-11-13T22:41:06.472Z,8.60
2018-11-13T22:43:35.733Z,8.60
2018-11-13T22:46:05.188Z,8.60
2018-11-13T22:48:33.853Z,8.60
2018-11-13T22:51:02.630Z,8.60
2018-11-13T22:53:31.424Z,8.60
2018-11-13T22:55:59.849Z,8.50
2018-11-13T22:58:28.962Z,8.60
2018-11-13T23:00:58.440Z,8.60
2018-11-13T23:03:26.734Z,8.50
2018-11-13T23:05:55.713Z,8.50
2018-11-13T23:08:23.897Z,8.40
2018-11-13T23:10:52.374Z,8.50
2018-11-13T23:13:21.731Z,8.50
2018-11-13T23:15:49.919Z,8.50
2018-11-13T23:23:12.639Z,8.50
2018-11-13T23:25:41.089Z,8.50
2018-11-13T23:28:10.184Z,8.50
2018-11-13T23:30:38.636Z,8.50
2018-11-13T23:33:07.650Z,8.50
2018-11-13T23:35:36.653Z,8.40
2018-11-13T23:38:05.805Z,8.40
2018-11-13T23:40:35.721Z,8.40
2018-11-13T23:43:05.781Z,8.30
2018-11-13T23:45:34.611Z,8.30
2018-11-13T23:48:03.245Z,8.20
2018-11-13T23:50:32.780Z,8.10
2018-11-13T23:53:01.454Z,8.10
2018-11-13T23:55:29.708Z,8.00
2018-11-13T23:57:57.809Z,7.90
